Flight Track Log - Related Links

Times and Time Zones

All times are in EST time to prevent confusion due to time zone crossing. See the N867CH flight status page for this flight to view local times or setup timezone preferences in your user account.

Time Position Orientation Groundspeed Altitude Reporting Facility
EST Latitude Longitude Course Direction KTS MPH feet Rate Location/Type
Sat 10:00:12 PM 32.6500 -84.9667 220° Southwest 88 101 2,700  Level Atlanta TRACON
Sat 10:01:12 PM 32.6333 -84.9833 220° Southwest 87 100 2,800  Climbing Atlanta TRACON
Sat 10:02:12 PM 32.6167 -85.0000 220° Southwest 88 101 2,700  Descending Atlanta TRACON
Sat 10:03:12 PM 32.6000 -85.0167 220° Southwest 87 100 2,800  Climbing Atlanta TRACON
Sat 10:04:12 PM 32.5667 -85.0333 203° Southwest 91 105 2,700 -48 Descending Atlanta TRACON
Sat 10:05:18 PM 32.5500 -85.0500 220° Southwest 89 102 2,700  Level Atlanta TRACON
Sat 10:06:18 PM 32.5167 -85.0500 180° South 88 101 2,700  Level Atlanta TRACON
Sat 10:07:12 PM 32.5000 -85.0667 220° Southwest 85 98 2,700  Level Atlanta TRACON
Sat 10:08:06 PM 32.4833 -85.0833 220° Southwest 90 104 2,700  Level Atlanta TRACON
Sat 10:09:06 PM 32.4667 -85.0833 180° South 86 99 2,700  Level Atlanta TRACON
Sat 10:10:06 PM 32.4333 -85.1000 203° Southwest 88 101 2,700  Level Atlanta TRACON
Sat 10:11:06 PM 32.4167 -85.1167 220° Southwest 87 100 2,700 48 Level Atlanta TRACON
Sat 10:12:12 PM 32.4000 -85.1167 180° South 86 99 2,800 48 Climbing Atlanta TRACON
Sat 10:13:12 PM 32.3667 -85.1333 203° Southwest 85 98 2,800  Level Atlanta TRACON
Sat 10:14:18 PM 32.3500 -85.1500 220° Southwest 89 102 2,800  Level Atlanta TRACON
Sat 10:15:18 PM 32.3167 -85.1500 180° South 89 102 2,800  Level Atlanta TRACON
Sat 10:16:18 PM 32.3000 -85.1667 220° Southwest 87 100 2,800 -53 Level Atlanta TRACON
Sat 10:17:12 PM 32.2833 -85.1667 180° South 89 102 2,700  Descending Atlanta TRACON
Sat 10:18:18 PM 32.2500 -85.1833 203° Southwest 88 101 2,800 50 Climbing Atlanta TRACON
Sat 10:19:12 PM 32.2333 -85.1833 180° South 85 98 2,800 -53 Level Atlanta TRACON
Sat 10:20:12 PM 32.2167 -85.2000 220° Southwest 88 101 2,700  Descending Atlanta TRACON
Sat 10:21:18 PM 32.1833 -85.2167 203° Southwest 83 96 2,800 50 Climbing Atlanta TRACON
Sat 10:22:12 PM 32.1667 -85.2167 180° South 88 101 2,800  Level Atlanta TRACON
Sat 10:23:06 PM 32.1500 -85.2333 220° Southwest 85 98 2,800  Level Atlanta TRACON
Sat 10:24:24 PM 32.1167 -85.2500 203° Southwest 87 100 2,800  Level Atlanta TRACON
Sat 10:25:12 PM 32.1000 -85.2667 220° Southwest 87 100 2,800  Level Atlanta TRACON
Sat 10:26:12 PM 32.0833 -85.2667 180° South 86 99 2,800  Level Atlanta TRACON
Sat 10:27:12 PM 32.0667 -85.2833 220° Southwest 85 98 2,800 -50 Level Atlanta TRACON
Sat 10:28:12 PM 32.0333 -85.2833 180° South 86 99 2,700 -53 Descending Atlanta TRACON
Sat 10:29:06 PM 32.0167 -85.3000 220° Southwest 86 99 2,700 54 Level Atlanta TRACON
Sat 10:30:04 PM 31.9972 -85.3106 205° Southwest 86 99 2,800  Climbing Jacksonville Center
Sat 10:31:11 PM 31.9742 -85.3219 203° Southwest 85 98 2,700  Descending Jacksonville Center
Sat 10:32:11 PM 31.9508 -85.3336 203° Southwest 84 97 2,800 50 Climbing Jacksonville Center
Sat 10:33:12 PM 31.9319 -85.3453 208° Southwest 85 98 2,800  Level Jacksonville Center
Sat 10:34:12 PM 31.9086 -85.3594 207° Southwest 87 100 2,800  Level Jacksonville Center
Sat 10:35:13 PM 31.8856 -85.3661 194° South 85 98 2,800 -49 Level Jacksonville Center
Sat 10:36:14 PM 31.8625 -85.3753 199° South 89 102 2,700  Descending Jacksonville Center
Sat 10:37:14 PM 31.8414 -85.3869 205° Southwest 85 98 2,800 50 Climbing Jacksonville Center
Sat 10:38:15 PM 31.8181 -85.4036 211° Southwest 86 99 2,800 -50 Level Jacksonville Center
Sat 10:39:15 PM 31.7950 -85.4150 203° Southwest 90 104 2,700  Descending Jacksonville Center
Sat 10:40:16 PM 31.7739 -85.4242 200° South 85 98 2,800 49 Climbing Jacksonville Center
Sat 10:41:17 PM 31.7506 -85.4383 207° Southwest 89 102 2,800  Level Jacksonville Center
Sat 10:42:17 PM 31.7314 -85.4525 212° Southwest 88 101 2,800  Level Jacksonville Center
Sat 10:43:18 PM 31.7083 -85.4664 207° Southwest 90 104 2,800  Level Jacksonville Center
Sat 10:44:18 PM 31.6892 -85.4831 217° Southwest 89 102 2,800  Level Jacksonville Center
Sat 10:45:19 PM 31.6658 -85.4994 211° Southwest 89 102 2,800 -49 Level Jacksonville Center
Sat 10:46:20 PM 31.6447 -85.5111 205° Southwest 90 104 2,700 -50 Descending Jacksonville Center
Sat 10:47:20 PM 31.6214 -85.5250 207° Southwest 89 102 2,700 50 Level Jacksonville Center
Sat 10:48:21 PM 31.6003 -85.5414 213° Southwest 92 106 2,800 50 Climbing Jacksonville Center
Sat 10:49:21 PM 31.5792 -85.5556 210° Southwest 85 98 2,800 -50 Level Jacksonville Center
Sat 10:50:22 PM 31.5558 -85.5719 211° Southwest 92 106 2,700 -98 Descending Jacksonville Center

Login

Don't have an account? Register now (free) for customized features, flight alerts, and more!